Time;durP1;ratioP1;P1;durP2;ratioP2;P2;SDS_P1;SDS_P2;PMS_P1;PMS_P2;Temp;Humidity;BMP_temperature;BMP_pressure;BME280_temperature;BME280_humidity;BME280_pressure;Samples;Min_cycle;Max_cycle;Signal;HPM_P1;HPM_P2
2019/09/09 08:15:25;;;;;;;-1.701412E+38;-2.262441E-39;;;;;;;24.44;47.22754;949.4243;;;;
2019/09/09 08:24:06;;;;;;;18.8;2.6;;;;;;;25.68;41.55762;949.4254;;;;
2019/09/09 08:26:31;;;;;;;27.7;2.8;;;;;;;25.66;41.66309;949.4022;;;;
2019/09/09 08:28:57;;;;;;;15.3;2;;;;;;;25.94;41.21191;949.48;;;;
2019/09/09 08:31:22;;;;;;;15;3.5;;;;;;;26.12;40.71582;949.4906;;;;
2019/09/09 08:33:47;;;;;;;409.5;325.3;;;;;;;26.3;40.08887;949.52;;;;
2019/09/09 08:36:12;;;;;;;396.1;321.6;;;;;;;26.45;39.51758;949.5722;;;;
2019/09/09 08:38:37;;;;;;;395.9;322.9;;;;;;;26.55;39.47852;949.5539;;;;
2019/09/09 08:41:25;;;;;;;24.3;2.6;;;;;;;26.41;39.66895;949.5559;;;;
2019/09/09 08:43:50;;;;;;;27.8;3.1;;;;;;;26.24;40.01172;949.5586;;;;
2019/09/09 08:46:15;;;;;;;38.2;4.1;;;;;;;26.2;40.27051;949.5472;;;;
2019/09/09 08:48:40;;;;;;;19.1;2;;;;;;;26.25;40.28711;949.5661;;;;
2019/09/09 08:51:05;;;;;;;16.5;2.1;;;;;;;26.21;40.30859;949.5883;;;;
2019/09/09 08:53:30;;;;;;;16.7;2.1;;;;;;;26.32;40.40137;949.6042;;;;
2019/09/09 08:55:55;;;;;;;25.2;2.4;;;;;;;26.36;40.11816;949.6167;;;;
2019/09/09 08:58:20;;;;;;;14.4;1.8;;;;;;;26.56;40.87598;949.6373;;;;
2019/09/09 09:00:46;;;;;;;28.4;3.4;;;;;;;26.62;39.83105;949.608;;;;
2019/09/09 09:03:11;;;;;;;14.9;2;;;;;;;26.75;39.84375;949.6275;;;;
2019/09/09 09:05:36;;;;;;;12.6;1.8;;;;;;;26.82;39.40723;949.6766;;;;
2019/09/09 09:08:01;;;;;;;8.9;1.4;;;;;;;26.82;39.33496;949.6711;;;;
2019/09/09 09:10:26;;;;;;;19.8;2.2;;;;;;;26.91;39.23535;949.693;;;;
2019/09/09 09:12:51;;;;;;;17.1;1.5;;;;;;;26.92;39.17676;949.6917;;;;
2019/09/09 09:15:16;;;;;;;8.4;1.4;;;;;;;27;39.00488;949.7219;;;;
2019/09/09 09:17:41;;;;;;;9.1;1.2;;;;;;;26.98;39.0625;949.7319;;;;
2019/09/09 09:20:06;;;;;;;19.3;2.2;;;;;;;27.1;38.70313;949.7583;;;;
2019/09/09 09:22:31;;;;;;;11.9;1.6;;;;;;;27.05;38.8291;949.772;;;;
2019/09/09 09:24:56;;;;;;;11;1.3;;;;;;;27.15;38.6709;949.7576;;;;
2019/09/09 09:27:22;;;;;;;11.9;1.7;;;;;;;27.3;38.38477;949.7715;;;;
2019/09/09 09:29:47;;;;;;;8.5;1;;;;;;;27.18;38.59082;949.7813;;;;
2019/09/09 09:32:12;;;;;;;18.6;2.2;;;;;;;27.19;38.56641;949.7266;;;;
2019/09/09 09:34:37;;;;;;;8.3;1.3;;;;;;;27.4;38.22656;949.7706;;;;
2019/09/09 09:37:02;;;;;;;11;1.3;;;;;;;27.49;37.9707;949.7561;;;;
2019/09/09 09:39:27;;;;;;;12.1;1.4;;;;;;;27.52;38.04492;949.7788;;;;
2019/09/09 09:41:52;;;;;;;13;2;;;;;;;27.76;37.59863;949.7819;;;;
2019/09/09 09:44:17;;;;;;;11.8;1.8;;;;;;;27.44;37.82422;949.7903;;;;
2019/09/09 09:46:42;;;;;;;14.8;2;;;;;;;27.54;38;949.7963;;;;
2019/09/09 09:49:07;;;;;;;17.6;2.1;;;;;;;28.23;37.36328;949.723;;;;
2019/09/09 09:51:32;;;;;;;14.9;2.1;;;;;;;28.59;36.16992;949.725;;;;
2019/09/09 09:53:57;;;;;;;11.5;1.7;;;;;;;28.87;35.7002;949.6913;;;;
2019/09/09 09:56:23;;;;;;;17.9;1.9;;;;;;;28.67;35.62402;949.6791;;;;
2019/09/09 09:58:48;;;;;;;12.4;1.8;;;;;;;28.13;36.51563;949.6873;;;;
2019/09/09 10:01:13;;;;;;;14.5;1.9;;;;;;;28.2;36.42578;949.71;;;;
2019/09/09 10:03:38;;;;;;;32.8;15.6;;;;;;;27.99;36.44531;949.738;;;;
2019/09/09 10:06:03;;;;;;;9.7;1.6;;;;;;;27.92;36.67871;949.7062;;;;
2019/09/09 10:08:28;;;;;;;11.6;1.5;;;;;;;27.87;37.17676;949.7333;;;;
2019/09/09 10:10:54;;;;;;;17.6;2.1;;;;;;;27.74;37.22559;949.7511;;;;
2019/09/09 10:13:19;;;;;;;7.4;1.4;;;;;;;28.1;36.91992;949.7562;;;;
2019/09/09 10:15:44;;;;;;;10.3;1.3;;;;;;;28.01;36.98535;949.7506;;;;
2019/09/09 10:18:10;;;;;;;9;1.3;;;;;;;27.89;37.21484;949.7772;;;;
2019/09/09 10:20:35;;;;;;;8.6;1.1;;;;;;;27.86;37.27246;949.8339;;;;
2019/09/09 10:23:00;;;;;;;10.2;1.5;;;;;;;28.06;37.08594;949.8167;;;;
2019/09/09 10:25:25;;;;;;;6.2;0.9;;;;;;;28.11;36.87402;949.7963;;;;
2019/09/09 10:27:51;;;;;;;34.9;8.6;;;;;;;27.86;37.21191;949.8734;;;;
2019/09/09 10:30:16;;;;;;;44.9;40.3;;;;;;;28.16;36.92578;949.8059;;;;
2019/09/09 10:32:42;;;;;;;44.3;38.2;;;;;;;28.09;36.77637;949.7823;;;;
2019/09/09 10:35:07;;;;;;;11.8;1.4;;;;;;;28.19;36.31836;949.808;;;;
2019/09/09 10:37:32;;;;;;;261.9;230.8;;;;;;;28.08;36.30859;949.8455;;;;
2019/09/09 10:39:57;;;;;;;6.9;0.7;;;;;;;27.98;36.58789;949.8528;;;;
2019/09/09 10:42:22;;;;;;;53.9;48.6;;;;;;;27.95;36.64453;949.8463;;;;
2019/09/09 10:44:47;;;;;;;26.5;15.7;;;;;;;27.89;36.97461;949.8264;;;;
2019/09/09 10:47:12;;;;;;;15.6;4.3;;;;;;;27.8;36.78809;949.8814;;;;
2019/09/09 10:49:38;;;;;;;9.3;0.8;;;;;;;27.99;36.85156;949.8887;;;;
2019/09/09 10:52:03;;;;;;;6.6;0.9;;;;;;;27.88;36.95117;949.933;;;;
2019/09/09 10:54:28;;;;;;;5.2;0.9;;;;;;;27.91;36.92969;949.8906;;;;
2019/09/09 10:56:54;;;;;;;8.3;0.9;;;;;;;27.88;36.6748;949.8786;;;;
2019/09/09 10:59:19;;;;;;;3.7;0.9;;;;;;;27.62;36.98926;949.9229;;;;
2019/09/09 11:01:44;;;;;;;9.2;0.9;;;;;;;27.86;36.69727;949.8887;;;;
2019/09/09 11:04:09;;;;;;;4.3;0.7;;;;;;;28;36.46875;949.9028;;;;
2019/09/09 11:06:34;;;;;;;6.1;1;;;;;;;28.09;36.50098;949.9207;;;;
2019/09/09 11:08:59;;;;;;;8.1;1.3;;;;;;;28.37;42.8623;949.9318;;;;
2019/09/09 11:11:25;;;;;;;7.6;1.3;;;;;;;27.8;36.7168;949.976;;;;
2019/09/09 11:13:50;;;;;;;7.1;1;;;;;;;27.67;37.21973;950.0004;;;;
2019/09/09 11:16:15;;;;;;;17.7;2;;;;;;;26.89;37.86035;950.0129;;;;
2019/09/09 11:18:40;;;;;;;10.3;1.5;;;;;;;26.09;38.90234;950.0137;;;;
2019/09/09 11:21:06;;;;;;;8.6;1.4;;;;;;;25.62;39.86133;950.043;;;;
2019/09/09 11:23:30;;;;;;;5.7;1.1;;;;;;;25.43;40.02344;950.0773;;;;
2019/09/09 11:25:56;;;;;;;5;1.2;;;;;;;25.33;40.40723;950.0851;;;;
2019/09/09 11:28:21;;;;;;;4;1.1;;;;;;;25.21;40.63379;950.1216;;;;
2019/09/09 11:30:46;;;;;;;3.1;1;;;;;;;25.14;40.74707;950.1529;;;;
2019/09/09 11:33:11;;;;;;;3.3;0.7;;;;;;;25.16;41.2959;950.1614;;;;
2019/09/09 11:35:36;;;;;;;6.6;1.1;;;;;;;25.18;41.52344;950.13;;;;
2019/09/09 11:38:01;;;;;;;3.6;0.9;;;;;;;25.25;41.48242;950.0714;;;;
2019/09/09 11:40:26;;;;;;;4.2;1;;;;;;;25.25;41.6377;950.1716;;;;
2019/09/09 11:42:51;;;;;;;6.4;1.1;;;;;;;25.25;41.9707;950.1469;;;;
2019/09/09 11:45:16;;;;;;;5.2;1.3;;;;;;;25.25;41.98242;950.2024;;;;
2019/09/09 11:47:41;;;;;;;6.3;1.4;;;;;;;25.25;41.66113;950.1209;;;;
2019/09/09 11:50:06;;;;;;;8.5;1.2;;;;;;;25.23;41.64746;950.1661;;;;
2019/09/09 11:52:32;;;;;;;8.5;1.4;;;;;;;25.28;41.77051;950.2319;;;;
2019/09/09 11:54:57;;;;;;;8.9;1.3;;;;;;;25.26;41.78125;950.1933;;;;
2019/09/09 11:57:22;;;;;;;8.6;1.2;;;;;;;25.29;41.85547;950.217;;;;
2019/09/09 11:59:47;;;;;;;5;1.3;;;;;;;25.37;41.64941;950.1703;;;;
2019/09/09 12:02:12;;;;;;;4.2;1;;;;;;;25.38;41.625;950.1881;;;;
2019/09/09 12:04:37;;;;;;;6.1;1;;;;;;;25.37;41.74316;950.1528;;;;
2019/09/09 12:07:02;;;;;;;7.2;1.2;;;;;;;25.42;42.23535;950.1802;;;;
2019/09/09 12:09:27;;;;;;;11.3;1.4;;;;;;;25.55;42.1416;950.2161;;;;
2019/09/09 12:11:52;;;;;;;5.6;1.4;;;;;;;25.73;42.12207;950.2381;;;;
2019/09/09 12:14:18;;;;;;;8.9;1.3;;;;;;;25.98;41.60938;950.2321;;;;
2019/09/09 12:16:43;;;;;;;7.5;1.2;;;;;;;26.03;42.05566;950.2573;;;;
2019/09/09 12:19:08;;;;;;;9.4;1.4;;;;;;;26.19;41.30762;950.2584;;;;
2019/09/09 12:21:33;;;;;;;5.6;1.3;;;;;;;26.22;41.17871;950.2408;;;;
2019/09/09 12:23:58;;;;;;;5.7;1.5;;;;;;;26.31;41.04492;950.2542;;;;
2019/09/09 12:26:23;;;;;;;8.4;1.4;;;;;;;26.34;41.04688;950.2779;;;;
2019/09/09 12:28:48;;;;;;;9.2;1.4;;;;;;;26.33;40.99902;950.2545;;;;
2019/09/09 12:31:13;;;;;;;6.7;1.2;;;;;;;26.38;40.91895;950.3272;;;;
2019/09/09 12:33:38;;;;;;;8.5;1.5;;;;;;;26.36;41.02441;950.3062;;;;
2019/09/09 12:36:03;;;;;;;8;1.5;;;;;;;26.45;40.9502;950.2986;;;;
2019/09/09 12:38:28;;;;;;;7.8;1.4;;;;;;;26.52;40.74023;950.3259;;;;
2019/09/09 12:40:53;;;;;;;6;1.2;;;;;;;26.58;40.77051;950.3574;;;;
2019/09/09 12:43:18;;;;;;;8.6;1.3;;;;;;;26.56;40.61328;950.332;;;;
2019/09/09 12:45:44;;;;;;;6.7;1.3;;;;;;;26.59;40.55664;950.3745;;;;
2019/09/09 12:48:09;;;;;;;6.1;1.4;;;;;;;26.63;40.5127;950.3831;;;;
2019/09/09 12:50:34;;;;;;;8;1.4;;;;;;;26.66;40.51563;950.3769;;;;
2019/09/09 12:52:59;;;;;;;6.4;1.3;;;;;;;26.74;40.42676;950.3488;;;;
2019/09/09 12:55:24;;;;;;;6.7;1.4;;;;;;;26.73;40.41406;950.3248;;;;
2019/09/09 12:57:49;;;;;;;8.2;1.4;;;;;;;26.7;40.35156;950.3351;;;;
2019/09/09 13:00:15;;;;;;;5.6;1.5;;;;;;;26.72;40.22168;950.3583;;;;
2019/09/09 13:02:40;;;;;;;14.5;2.3;;;;;;;26.58;40.11426;950.3738;;;;
2019/09/09 13:05:05;;;;;;;16.1;2.8;;;;;;;26.24;39.72656;950.3415;;;;
2019/09/09 13:07:30;;;;;;;15.9;2.6;;;;;;;26.08;40.6543;950.3152;;;;
2019/09/09 13:09:55;;;;;;;17.7;2.7;;;;;;;26.25;40.68066;950.3419;;;;
2019/09/09 13:12:20;;;;;;;19;3;;;;;;;26.55;40.30273;950.3463;;;;
2019/09/09 13:14:45;;;;;;;17.8;3.7;;;;;;;26.69;40.14746;950.3683;;;;
2019/09/09 13:17:10;;;;;;;20.3;3.9;;;;;;;26.97;39.79102;950.4028;;;;
2019/09/09 13:19:35;;;;;;;18;4.5;;;;;;;26.99;39.46973;950.4457;;;;
2019/09/09 13:22:01;;;;;;;18.7;4.6;;;;;;;26.94;39.6084;950.5018;;;;
2019/09/09 13:24:26;;;;;;;21.4;5.1;;;;;;;27.01;39.51953;950.4394;;;;
2019/09/09 13:26:51;;;;;;;19.6;4.9;;;;;;;26.98;39.50488;950.4375;;;;
2019/09/09 13:29:16;;;;;;;23.5;5.6;;;;;;;26.91;39.72559;950.3898;;;;
2019/09/09 13:31:41;;;;;;;22.9;5.6;;;;;;;27.03;39.53223;950.3333;;;;
2019/09/09 13:34:06;;;;;;;20.4;5.5;;;;;;;26.97;39.53906;950.3663;;;;
2019/09/09 13:36:32;;;;;;;21.2;6.9;;;;;;;26.6;39.8291;950.3917;;;;
2019/09/09 13:38:57;;;;;;;20.8;6.7;;;;;;;26.43;40.375;950.3566;;;;
2019/09/09 13:41:22;;;;;;;22.3;6.4;;;;;;;26.58;40.38867;950.3367;;;;
2019/09/09 13:43:47;;;;;;;18.8;6.1;;;;;;;26.66;40.28906;950.3638;;;;
2019/09/09 13:46:12;;;;;;;16.5;5.8;;;;;;;26.76;40.17773;950.3517;;;;
2019/09/09 13:48:37;;;;;;;20.4;5.8;;;;;;;26.89;39.77148;950.3585;;;;
2019/09/09 13:51:03;;;;;;;25.5;6.2;;;;;;;26.82;39.98047;950.395;;;;
2019/09/09 13:53:28;;;;;;;21.8;6.2;;;;;;;26.84;39.91113;950.4156;;;;
2019/09/09 13:55:53;;;;;;;18.1;5.6;;;;;;;26.85;40.16211;950.4155;;;;
2019/09/09 13:58:18;;;;;;;15;5.7;;;;;;;26.89;39.80762;950.397;;;;
2019/09/09 14:00:43;;;;;;;15;5.2;;;;;;;26.91;39.74902;950.415;;;;
2019/09/09 14:03:08;;;;;;;31.6;5.8;;;;;;;26.71;39.7793;950.3692;;;;
2019/09/09 14:05:34;;;;;;;23.5;5.5;;;;;;;26.7;40.19629;950.3322;;;;
2019/09/09 14:07:59;;;;;;;23.5;6;;;;;;;26.77;39.90332;950.3248;;;;
2019/09/09 14:10:24;;;;;;;23.4;5.5;;;;;;;26.79;39.61914;950.3162;;;;
2019/09/09 14:12:49;;;;;;;22.9;5.8;;;;;;;26.92;39.17676;950.322;;;;
2019/09/09 14:15:14;;;;;;;18.6;5.5;;;;;;;26.73;39.68555;950.2626;;;;
2019/09/09 14:17:39;;;;;;;15.4;4.7;;;;;;;26.59;39.82813;950.2877;;;;
2019/09/09 14:20:05;;;;;;;18.4;5.6;;;;;;;26.72;39.81543;950.2274;;;;
2019/09/09 14:22:30;;;;;;;16.6;5.7;;;;;;;26.74;39.61523;950.2305;;;;
2019/09/09 14:24:55;;;;;;;17.3;4.6;;;;;;;26.73;39.57813;950.2092;;;;
2019/09/09 14:27:21;;;;;;;14.9;4.8;;;;;;;26.79;39.52441;950.2022;;;;
2019/09/09 14:29:46;;;;;;;14.6;4.4;;;;;;;26.66;39.56055;950.2263;;;;
2019/09/09 14:32:11;;;;;;;14.6;4.6;;;;;;;26.62;39.77051;950.2192;;;;
2019/09/09 14:34:37;;;;;;;12.7;4.6;;;;;;;26.65;39.6543;950.2095;;;;
2019/09/09 14:37:02;;;;;;;19.7;4.6;;;;;;;26.75;39.4834;950.2297;;;;
2019/09/09 14:39:27;;;;;;;15;4.6;;;;;;;26.66;39.8584;950.1898;;;;
2019/09/09 14:41:52;;;;;;;14;4.6;;;;;;;26.85;39.60156;950.1618;;;;
2019/09/09 14:44:17;;;;;;;12.2;4.6;;;;;;;26.8;39.1543;950.1361;;;;
2019/09/09 14:46:42;;;;;;;15.5;4;;;;;;;26.66;39.08301;950.1478;;;;
2019/09/09 14:49:07;;;;;;;17.5;4.9;;;;;;;26.47;39.44824;950.1688;;;;
2019/09/09 14:51:33;;;;;;;11.2;4.8;;;;;;;26.37;39.66602;950.2368;;;;
2019/09/09 14:53:58;;;;;;;16;5.1;;;;;;;26.35;39.73633;950.1564;;;;
2019/09/09 14:56:23;;;;;;;13.7;5.4;;;;;;;26.25;39.69141;950.1446;;;;
2019/09/09 14:58:48;;;;;;;13.5;5.4;;;;;;;26.18;39.85156;950.1184;;;;
2019/09/09 15:01:13;;;;;;;12.4;5;;;;;;;26.18;39.80371;950.1163;;;;
2019/09/09 15:03:38;;;;;;;12.9;5.4;;;;;;;26.13;39.81152;950.0857;;;;
2019/09/09 15:06:03;;;;;;;13.6;5.2;;;;;;;26.06;39.81738;950.1453;;;;
2019/09/09 15:08:29;;;;;;;11.1;5.2;;;;;;;26.05;39.94727;950.1509;;;;
2019/09/09 15:10:54;;;;;;;27;6.1;;;;;;;25.91;40.39941;950.1728;;;;
2019/09/09 15:13:19;;;;;;;12.4;5.1;;;;;;;26.13;40.38477;950.0945;;;;
2019/09/09 15:15:45;;;;;;;10.2;4.8;;;;;;;26.3;39.91016;950.1305;;;;
2019/09/09 15:18:10;;;;;;;15.4;5.3;;;;;;;26.27;39.83496;950.1014;;;;
2019/09/09 15:20:35;;;;;;;14.2;5.4;;;;;;;26.3;39.7793;950.1016;;;;
2019/09/09 15:23:00;;;;;;;11.8;5.2;;;;;;;26.37;39.71289;950.0645;;;;
2019/09/09 15:25:26;;;;;;;13.7;5.2;;;;;;;26.39;39.5127;950.0894;;;;
2019/09/09 15:27:51;;;;;;;10.6;5.1;;;;;;;26.44;39.41016;950.0856;;;;
2019/09/09 15:30:16;;;;;;;11.5;5.1;;;;;;;26.46;39.29102;950.1203;;;;
2019/09/09 15:32:41;;;;;;;9;4.9;;;;;;;26.45;39.44531;950.0927;;;;
2019/09/09 15:35:06;;;;;;;20.7;5.6;;;;;;;26.37;39.47559;950.1107;;;;
2019/09/09 15:37:31;;;;;;;12.7;5.2;;;;;;;26.15;39.68164;950.0952;;;;
2019/09/09 15:39:57;;;;;;;11.3;5.5;;;;;;;26;39.91895;950.1408;;;;
2019/09/09 15:42:22;;;;;;;13.7;5.3;;;;;;;25.97;40;950.1476;;;;
2019/09/09 15:44:47;;;;;;;11.5;5.2;;;;;;;25.86;40.19238;950.1666;;;;
2019/09/09 15:47:12;;;;;;;10.4;5.2;;;;;;;25.83;40.34473;950.0942;;;;
2019/09/09 15:49:37;;;;;;;10.3;5.4;;;;;;;25.77;40.3877;950.1308;;;;
2019/09/09 15:52:02;;;;;;;13.6;5.3;;;;;;;25.7;40.54785;950.1142;;;;
2019/09/09 15:54:28;;;;;;;12.8;5.6;;;;;;;25.64;40.56543;950.0935;;;;
2019/09/09 15:56:53;;;;;;;8.9;4.9;;;;;;;25.62;40.61133;950.0577;;;;
2019/09/09 15:59:18;;;;;;;9.5;5.1;;;;;;;25.58;40.67871;950.029;;;;
2019/09/09 16:01:43;;;;;;;9.4;4.5;;;;;;;25.53;40.71094;950.0309;;;;
2019/09/09 16:04:08;;;;;;;9;4.7;;;;;;;25.51;40.76855;950.0213;;;;
2019/09/09 16:06:33;;;;;;;9.5;4.8;;;;;;;25.45;40.91895;950.0178;;;;
2019/09/09 16:08:58;;;;;;;11.1;4.8;;;;;;;25.43;40.96387;950.1066;;;;
2019/09/09 16:11:23;;;;;;;9.3;5.1;;;;;;;25.38;40.93555;950.0695;;;;
2019/09/09 16:13:49;;;;;;;10.5;4.7;;;;;;;25.36;41.02832;950.0334;;;;
2019/09/09 16:16:14;;;;;;;7.6;4.6;;;;;;;25.31;41.07129;950.0764;;;;
2019/09/09 16:18:39;;;;;;;8.9;4.9;;;;;;;25.3;41.09473;950.1277;;;;
2019/09/09 16:21:04;;;;;;;6.4;4.2;;;;;;;25.26;41.17383;950.1372;;;;
2019/09/09 16:23:29;;;;;;;7.4;4.1;;;;;;;25.23;41.29004;950.1036;;;;
2019/09/09 16:25:54;;;;;;;7;4.2;;;;;;;25.19;41.33398;950.089;;;;
2019/09/09 16:28:19;;;;;;;6.4;4;;;;;;;25.15;41.40137;950.0375;;;;
2019/09/09 16:30:45;;;;;;;7.1;4.3;;;;;;;25.14;41.38867;950.0513;;;;
2019/09/09 16:33:10;;;;;;;6.8;4.2;;;;;;;25.1;41.44434;950.0808;;;;
2019/09/09 16:35:35;;;;;;;8.6;4.2;;;;;;;25.07;41.50195;950.0422;;;;
2019/09/09 16:38:01;;;;;;;9.3;4.5;;;;;;;25.04;41.4873;950.0505;;;;
2019/09/09 16:40:26;;;;;;;6.6;4;;;;;;;25.02;41.60352;950.0486;;;;
2019/09/09 16:42:51;;;;;;;6.7;4.2;;;;;;;25.01;41.53125;950.0142;;;;
2019/09/09 16:45:16;;;;;;;8.5;4;;;;;;;24.98;41.62305;950.0601;;;;
2019/09/09 16:47:42;;;;;;;6.8;3.9;;;;;;;24.93;41.66699;950.0237;;;;
2019/09/09 16:50:07;;;;;;;6.7;3.8;;;;;;;24.89;41.77051;950.0235;;;;
2019/09/09 16:52:33;;;;;;;6.4;4.1;;;;;;;24.86;41.87402;950.0952;;;;
2019/09/09 16:54:58;;;;;;;6.3;3.8;;;;;;;24.85;41.7666;950.1562;;;;
2019/09/09 16:57:23;;;;;;;8;3.9;;;;;;;24.84;41.83691;950.14;;;;
2019/09/09 16:59:48;;;;;;;5.9;3.5;;;;;;;24.8;41.80859;950.1304;;;;
2019/09/09 17:02:13;;;;;;;6.4;3.6;;;;;;;24.79;41.9502;950.1571;;;;
2019/09/09 17:04:38;;;;;;;6.4;4;;;;;;;24.73;42.00488;950.1756;;;;
2019/09/09 17:07:03;;;;;;;5.9;4;;;;;;;24.76;41.97168;950.1555;;;;
2019/09/09 17:09:28;;;;;;;6.6;3.9;;;;;;;24.75;41.99512;950.1206;;;;
2019/09/09 17:11:53;;;;;;;5.4;3.6;;;;;;;24.73;42.0293;950.0924;;;;
2019/09/09 17:14:18;;;;;;;7;4.2;;;;;;;24.7;42.08594;950.093;;;;
2019/09/09 17:16:44;;;;;;;5.6;3.8;;;;;;;24.68;42.11914;950.0853;;;;
2019/09/09 17:19:09;;;;;;;6.6;3.7;;;;;;;24.69;42.07227;950.0359;;;;
2019/09/09 17:21:34;;;;;;;6.3;3.7;;;;;;;24.69;41.98828;950.0652;;;;
2019/09/09 17:23:59;;;;;;;6.3;3.6;;;;;;;24.65;42.11621;950.0517;;;;
2019/09/09 17:26:25;;;;;;;5.6;3.4;;;;;;;24.63;42.10156;950.1055;;;;
2019/09/09 17:28:50;;;;;;;5;3.3;;;;;;;24.55;42.27344;950.1139;;;;
2019/09/09 17:31:15;;;;;;;5.6;3.4;;;;;;;24.55;42.33203;950.0834;;;;
2019/09/09 17:33:40;;;;;;;4.9;3.5;;;;;;;24.54;42.33203;950.0925;;;;
2019/09/09 17:36:05;;;;;;;6;3.6;;;;;;;24.53;42.31934;950.1029;;;;
2019/09/09 17:38:30;;;;;;;6.3;3.7;;;;;;;24.55;42.22559;950.0856;;;;
2019/09/09 17:40:56;;;;;;;4.7;3.4;;;;;;;24.52;42.25781;950.0916;;;;
2019/09/09 17:43:21;;;;;;;6.2;3.4;;;;;;;24.51;42.30469;950.1231;;;;
2019/09/09 17:45:46;;;;;;;5.6;3.5;;;;;;;24.48;42.37305;950.0422;;;;
2019/09/09 17:48:11;;;;;;;4.7;3.3;;;;;;;24.47;42.39648;950.0934;;;;
2019/09/09 17:50:36;;;;;;;5.3;3.2;;;;;;;24.49;42.25586;950.1063;;;;
2019/09/09 17:53:01;;;;;;;4.4;3.2;;;;;;;24.49;42.26758;950.1476;;;;
2019/09/09 17:55:27;;;;;;;4.9;3.3;;;;;;;24.46;42.28809;950.2467;;;;
2019/09/09 17:57:52;;;;;;;5.7;3.2;;;;;;;24.5;42.2207;950.272;;;;
2019/09/09 18:00:17;;;;;;;4.8;3.4;;;;;;;24.46;42.27637;950.307;;;;
2019/09/09 18:02:43;;;;;;;4.3;3.2;;;;;;;24.44;42.2627;950.3169;;;;
2019/09/09 18:05:08;;;;;;;5.6;3.3;;;;;;;24.41;42.2002;950.3222;;;;
2019/09/09 18:07:33;;;;;;;4.7;3.3;;;;;;;24.43;42.25;950.3169;;;;
2019/09/09 18:09:58;;;;;;;6;3.4;;;;;;;24.41;42.21289;950.3088;;;;
2019/09/09 18:12:23;;;;;;;4.5;3;;;;;;;24.39;42.21094;950.3344;;;;
2019/09/09 18:14:48;;;;;;;5.2;3.2;;;;;;;24.41;42.16504;950.3506;;;;
2019/09/09 18:17:14;;;;;;;5;3.3;;;;;;;24.41;42.12891;950.3555;;;;
2019/09/09 18:19:39;;;;;;;6.5;3.1;;;;;;;24.39;42.15137;950.4228;;;;
2019/09/09 18:22:04;;;;;;;5.5;3.1;;;;;;;24.3;42.42676;950.4788;;;;
2019/09/09 18:24:29;;;;;;;4.8;3.1;;;;;;;24.54;42.11719;950.4933;;;;
2019/09/09 18:26:54;;;;;;;8.4;3;;;;;;;24.46;42.0498;950.4956;;;;
2019/09/09 18:29:19;;;;;;;6.5;3;;;;;;;24.4;42.06836;950.494;;;;
2019/09/09 18:31:45;;;;;;;7.5;3;;;;;;;24.38;41.99512;950.5158;;;;
2019/09/09 18:34:10;;;;;;;5.2;3;;;;;;;24.32;42.00195;950.5604;;;;
2019/09/09 18:36:35;;;;;;;5.6;3;;;;;;;24.29;42.06934;950.5625;;;;
2019/09/09 18:39:00;;;;;;;6.6;3;;;;;;;24.24;42.07715;950.5474;;;;
2019/09/09 18:41:25;;;;;;;5.2;3.1;;;;;;;24.23;42.1123;950.537;;;;
2019/09/09 18:43:50;;;;;;;4.6;2.8;;;;;;;24.23;42.14746;950.5496;;;;
2019/09/09 18:46:16;;;;;;;6.3;2.9;;;;;;;24.21;42.12207;950.5372;;;;
2019/09/09 18:48:41;;;;;;;4.2;2.8;;;;;;;24.18;42.16699;950.6133;;;;
2019/09/09 18:51:06;;;;;;;5.8;2.8;;;;;;;24.14;42.18555;950.5946;;;;
2019/09/09 18:53:31;;;;;;;4.9;2.8;;;;;;;24.13;42.17285;950.5894;;;;
2019/09/09 18:55:56;;;;;;;4.7;2.6;;;;;;;24.1;42.21777;950.5665;;;;
2019/09/09 18:58:21;;;;;;;3.9;2.7;;;;;;;24.1;42.18359;950.6046;;;;
2019/09/09 19:00:47;;;;;;;4.6;2.7;;;;;;;24.09;42.19336;950.625;;;;
2019/09/09 19:03:12;;;;;;;4;2.6;;;;;;;24.07;42.16797;950.6603;;;;
2019/09/09 19:05:37;;;;;;;4.1;2.7;;;;;;;24.06;42.14355;950.6871;;;;
2019/09/09 19:08:02;;;;;;;3.1;2.5;;;;;;;24.04;42.17773;950.7288;;;;
2019/09/09 19:10:27;;;;;;;4.3;2.5;;;;;;;24.03;42.16504;950.7349;;;;
2019/09/09 19:12:52;;;;;;;4.1;2.4;;;;;;;24.02;42.17578;950.7428;;;;
2019/09/09 19:15:18;;;;;;;5;2.6;;;;;;;24.01;42.15039;950.8097;;;;
2019/09/09 19:17:43;;;;;;;4.3;2.4;;;;;;;23.98;42.16016;950.8036;;;;
2019/09/09 19:20:08;;;;;;;3.5;2.2;;;;;;;23.96;42.15723;950.7955;;;;
2019/09/09 19:22:34;;;;;;;3.7;2.1;;;;;;;23.96;42.0625;950.8108;;;;
2019/09/09 19:24:59;;;;;;;3.3;2.1;;;;;;;23.97;42.02734;950.8461;;;;
2019/09/09 19:27:24;;;;;;;5.1;2.3;;;;;;;23.93;42.03613;950.843;;;;
2019/09/09 19:29:49;;;;;;;3.7;2.2;;;;;;;23.9;42.04492;950.8929;;;;
2019/09/09 19:32:14;;;;;;;2.5;2.1;;;;;;;23.9;42.06934;950.9075;;;;
2019/09/09 19:34:39;;;;;;;2.4;2.2;;;;;;;23.87;42.06641;950.8787;;;;
2019/09/09 19:37:04;;;;;;;4.4;1.9;;;;;;;23.86;42.07715;950.8943;;;;
2019/09/09 19:39:29;;;;;;;2.7;2.1;;;;;;;23.83;42.03906;950.8738;;;;
2019/09/09 19:41:55;;;;;;;2.5;2.1;;;;;;;23.81;42.08398;950.9222;;;;
2019/09/09 19:44:20;;;;;;;3.1;2.1;;;;;;;23.8;42.04785;950.9203;;;;
2019/09/09 19:46:45;;;;;;;2.5;2.2;;;;;;;23.79;42.07031;950.907;;;;
2019/09/09 19:49:10;;;;;;;3.1;2.1;;;;;;;23.77;42.03223;950.8725;;;;
2019/09/09 19:51:35;;;;;;;2.6;2;;;;;;;23.77;42.04492;950.8923;;;;
2019/09/09 19:54:00;;;;;;;2.9;1.9;;;;;;;23.76;41.9248;950.8932;;;;
2019/09/09 19:56:25;;;;;;;7.1;2.6;;;;;;;23.73;42.07715;950.9051;;;;
2019/09/09 19:58:50;;;;;;;4.6;2.4;;;;;;;23.74;42.18555;950.9626;;;;
2019/09/09 20:01:15;;;;;;;4.7;2.4;;;;;;;23.72;42.20605;950.9947;;;;
2019/09/09 20:03:41;;;;;;;4.8;2.4;;;;;;;23.72;42.19434;951.0338;;;;
2019/09/09 20:06:06;;;;;;;5.8;2.5;;;;;;;23.71;42.16992;951.0092;;;;
2019/09/09 20:08:31;;;;;;;5.9;2.6;;;;;;;23.69;42.19238;951.0673;;;;
2019/09/09 20:10:56;;;;;;;6.8;2.3;;;;;;;23.67;42.21289;951.0346;;;;
2019/09/09 20:13:21;;;;;;;7.4;2.5;;;;;;;23.64;42.21094;951.0503;;;;
2019/09/09 20:15:46;;;;;;;5.4;2.6;;;;;;;23.63;42.22168;951.072;;;;
2019/09/09 20:18:11;;;;;;;5.8;2.3;;;;;;;23.64;42.13965;951.0722;;;;
2019/09/09 20:20:36;;;;;;;6.7;2.4;;;;;;;23.61;41.98242;951.048;;;;
2019/09/09 20:23:01;;;;;;;4.4;2;;;;;;;23.6;41.89844;950.9993;;;;
2019/09/09 20:25:27;;;;;;;5.4;2.2;;;;;;;23.58;41.77832;951.002;;;;
2019/09/09 20:29:57;;;;;;;10.4;2.4;;;;;;;23.86;41.35352;950.9054;;;;
2019/09/09 20:32:22;;;;;;;12.6;2.7;;;;;;;24.04;40.90723;950.9185;;;;
2019/09/09 20:34:47;;;;;;;11;2.7;;;;;;;24.15;40.66699;950.9811;;;;
2019/09/09 20:37:12;;;;;;;6.4;2.1;;;;;;;24.15;40.50293;950.962;;;;
2019/09/09 20:39:37;;;;;;;7.1;2.4;;;;;;;24.16;40.43164;951.0398;;;;
2019/09/09 20:42:03;;;;;;;10.9;2.7;;;;;;;24.14;40.33496;951.0391;;;;
2019/09/09 20:44:28;;;;;;;13.4;3;;;;;;;24.15;40.24219;951.0695;;;;
2019/09/09 20:46:53;;;;;;;22;3.6;;;;;;;24.17;40.1709;951.0402;;;;
2019/09/09 20:49:18;;;;;;;14.9;3;;;;;;;24.18;40.08984;950.9597;;;;
2019/09/09 20:51:43;;;;;;;17.9;3.2;;;;;;;24.16;40.0752;950.9691;;;;
2019/09/09 20:54:08;;;;;;;20.4;3.3;;;;;;;24.15;40.03906;950.9712;;;;
2019/09/09 20:56:33;;;;;;;16.9;3.4;;;;;;;24.14;39.9668;951.0076;;;;
2019/09/09 20:58:58;;;;;;;17.6;3.2;;;;;;;24.14;39.88379;950.988;;;;
2019/09/09 21:01:23;;;;;;;12.5;2.8;;;;;;;24.13;39.7998;950.9543;;;;
2019/09/09 21:03:48;;;;;;;12.7;2.2;;;;;;;24.13;39.7168;950.9941;;;;
2019/09/09 21:06:14;;;;;;;13.7;2.8;;;;;;;24.12;39.69238;951.0028;;;;
2019/09/09 21:08:39;;;;;;;9.1;2.7;;;;;;;24.11;39.58398;951.0129;;;;
2019/09/09 21:11:17;;;;;;;15.6;2.7;;;;;;;24.08;39.51172;951.0156;;;;
2019/09/09 21:13:29;;;;;;;15.7;2.8;;;;;;;24.1;39.39453;951.0168;;;;
2019/09/09 21:15:54;;;;;;;13.4;2.6;;;;;;;24.09;39.36914;951.0504;;;;
2019/09/09 21:18:19;;;;;;;8.2;2.4;;;;;;;24.07;39.27246;951.0179;;;;
2019/09/09 21:20:44;;;;;;;9.8;1.9;;;;;;;24.06;39.17676;951.0363;;;;
2019/09/09 21:23:09;;;;;;;8.6;2.3;;;;;;;24.06;39.08203;951.0814;;;;
2019/09/09 21:25:34;;;;;;;9.1;1.9;;;;;;;24.09;39.04883;951.087;;;;
2019/09/09 21:27:59;;;;;;;13.9;2.1;;;;;;;24.05;39.04492;951.0862;;;;
2019/09/09 21:30:24;;;;;;;10.5;1.9;;;;;;;24.02;38.99414;951.1106;;;;
2019/09/09 21:32:49;;;;;;;11.5;2.2;;;;;;;24.01;38.95801;951.0613;;;;
2019/09/09 21:35:14;;;;;;;13.2;1.8;;;;;;;24;38.93359;951.0847;;;;
2019/09/09 21:37:40;;;;;;;8.8;2.1;;;;;;;23.99;38.84961;951.0444;;;;
2019/09/09 21:40:05;;;;;;;10.7;2;;;;;;;23.98;38.80176;951.0858;;;;
2019/09/09 21:42:30;;;;;;;5;1.4;;;;;;;23.95;38.81152;951.1033;;;;
2019/09/09 21:44:55;;;;;;;7.9;1.8;;;;;;;23.93;38.78613;951.0531;;;;
2019/09/09 21:47:20;;;;;;;8;1.7;;;;;;;23.93;38.80859;951.0212;;;;
2019/09/09 21:49:45;;;;;;;8.2;1.8;;;;;;;23.93;38.74902;951.0239;;;;
2019/09/09 21:52:10;;;;;;;4.7;1.6;;;;;;;23.91;38.7002;951.0086;;;;
2019/09/09 21:54:35;;;;;;;6.1;1.7;;;;;;;23.89;38.6875;951.0114;;;;
2019/09/09 21:57:00;;;;;;;8.1;1.9;;;;;;;23.88;38.6748;951.0271;;;;
2019/09/09 21:59:25;;;;;;;4.7;1.7;;;;;;;23.87;38.61426;951.0375;;;;
2019/09/09 22:01:50;;;;;;;4.9;1.7;;;;;;;23.86;38.63672;951.0231;;;;
2019/09/09 22:04:16;;;;;;;5;2;;;;;;;23.85;38.67188;950.9913;;;;
2019/09/09 22:06:41;;;;;;;5.6;1.7;;;;;;;23.86;38.69629;950.9993;;;;
2019/09/09 22:09:08;;;;;;;4.3;1.6;;;;;;;23.85;38.6709;951.0053;;;;
2019/09/09 22:11:31;;;;;;;4.2;1.7;;;;;;;23.86;38.61328;951.0162;;;;
2019/09/09 22:13:56;;;;;;;5.3;2;;;;;;;23.85;38.63574;950.9846;;;;
2019/09/09 22:16:21;;;;;;;4.9;1.6;;;;;;;23.82;38.62109;950.9623;;;;
2019/09/09 22:18:46;;;;;;;3.5;1.8;;;;;;;23.83;38.53809;950.971;;;;
2019/09/09 22:21:11;;;;;;;3.7;1.6;;;;;;;23.84;38.45703;950.9738;;;;
2019/09/09 22:23:37;;;;;;;3.8;1.7;;;;;;;23.81;38.45508;950.9548;;;;
2019/09/09 22:26:02;;;;;;;3.6;1.6;;;;;;;23.83;38.38477;950.9542;;;;
2019/09/09 22:28:27;;;;;;;5.3;1.7;;;;;;;23.81;38.33594;950.9529;;;;
2019/09/09 22:30:52;;;;;;;2.7;1.5;;;;;;;23.79;38.34668;950.9324;;;;